createdAt,value
2019-01-29T00:01:31.343Z,98346.48
2019-01-29T00:03:59.096Z,98356.17
2019-01-29T00:06:26.968Z,98349.31
2019-01-29T00:08:54.734Z,98340.28
2019-01-29T00:11:22.499Z,98347.86
2019-01-29T00:13:50.339Z,98347.41
2019-01-29T00:16:18.177Z,98346.82
2019-01-29T00:18:45.941Z,98354.66
2019-01-29T00:21:13.705Z,98351.11
2019-01-29T00:23:41.807Z,98351.30
2019-01-29T00:26:09.659Z,98358.61
2019-01-29T00:28:37.536Z,98362.19
2019-01-29T00:31:05.363Z,98361.30
2019-01-29T00:33:33.144Z,98362.61
2019-01-29T00:36:01.270Z,98346.77
2019-01-29T00:38:29.068Z,98348.52
2019-01-29T00:40:56.812Z,98352.52
2019-01-29T00:43:24.632Z,98364.47
2019-01-29T00:45:52.497Z,98362.66
2019-01-29T00:48:20.280Z,98367.06
2019-01-29T00:50:48.243Z,98363.68
2019-01-29T00:53:16.096Z,98361.31
2019-01-29T00:55:43.851Z,98356.61
2019-01-29T00:58:11.612Z,98358.95
2019-01-29T01:00:39.833Z,98367.49
2019-01-29T01:03:07.582Z,98365.61
2019-01-29T01:05:35.340Z,98368.50
2019-01-29T01:08:03.203Z,98372.25
2019-01-29T01:10:31.221Z,98366.47
2019-01-29T01:12:59.013Z,98361.13
2019-01-29T01:15:26.800Z,98363.31
2019-01-29T01:17:54.801Z,98371.78
2019-01-29T01:20:22.649Z,98359.31
2019-01-29T01:22:51.493Z,98367.34
2019-01-29T01:25:19.505Z,98365.84
2019-01-29T01:27:47.274Z,98366.70
2019-01-29T01:30:16.055Z,98376.90
2019-01-29T01:32:43.918Z,98380.03
2019-01-29T01:35:11.763Z,98384.48
2019-01-29T01:37:39.871Z,98379.84
2019-01-29T01:40:09.706Z,98380.22
2019-01-29T01:42:37.458Z,98381.83
2019-01-29T01:45:06.305Z,98383.17
2019-01-29T01:47:34.067Z,98395.86
2019-01-29T01:50:01.856Z,98402.43
2019-01-29T01:52:29.689Z,98398.34
2019-01-29T01:54:57.436Z,98393.47
2019-01-29T01:57:25.553Z,98389.74
2019-01-29T01:59:53.306Z,98394.67
2019-01-29T02:02:21.080Z,98396.50
2019-01-29T02:04:48.828Z,98399.45
2019-01-29T02:07:16.584Z,98402.25
2019-01-29T02:09:44.455Z,98404.16
2019-01-29T02:12:12.291Z,98403.25
2019-01-29T02:14:40.427Z,98410.13
2019-01-29T02:17:08.200Z,98406.64
2019-01-29T02:19:35.944Z,98406.41
2019-01-29T02:22:03.713Z,98408.73
2019-01-29T02:24:31.471Z,98403.58
2019-01-29T02:26:59.250Z,98406.84
2019-01-29T02:29:26.996Z,98408.84
2019-01-29T02:31:54.753Z,98402.45
2019-01-29T02:34:22.521Z,98405.85
2019-01-29T02:36:50.273Z,98406.36
2019-01-29T02:39:18.134Z,98407.67
2019-01-29T02:41:46.213Z,98409.02
2019-01-29T02:44:13.970Z,98405.05
2019-01-29T02:46:41.737Z,98397.34
2019-01-29T02:49:09.492Z,98405.89
2019-01-29T02:51:37.260Z,98402.48
2019-01-29T02:54:05.096Z,98406.13
2019-01-29T02:56:32.847Z,98410.74
2019-01-29T02:59:00.626Z,98404.22
2019-01-29T03:01:28.449Z,98403.39
2019-01-29T03:03:56.588Z,98403.62
2019-01-29T03:06:24.342Z,98406.41
2019-01-29T03:08:52.096Z,98408.38
2019-01-29T03:11:19.860Z,98405.32
2019-01-29T03:13:47.616Z,98407.51
2019-01-29T03:16:15.393Z,98407.18
2019-01-29T03:18:43.215Z,98402.66
2019-01-29T03:21:11.024Z,98407.28
2019-01-29T03:23:38.779Z,98398.61
2019-01-29T03:26:06.541Z,98403.65
2019-01-29T03:28:34.315Z,98408.84
2019-01-29T03:31:02.103Z,98410.81
2019-01-29T03:33:29.919Z,98409.62
2019-01-29T03:35:58.032Z,98411.46
2019-01-29T03:38:25.796Z,98415.98
2019-01-29T03:40:53.649Z,98418.93
2019-01-29T03:43:21.503Z,98414.84
2019-01-29T03:45:49.255Z,98423.73
2019-01-29T03:48:17.023Z,98420.23
2019-01-29T03:50:44.805Z,98418.13
2019-01-29T03:53:12.584Z,98419.30
2019-01-29T03:55:40.334Z,98422.09
2019-01-29T03:58:08.411Z,98417.61
2019-01-29T04:00:36.183Z,98415.34
2019-01-29T04:03:04.349Z,98405.00
2019-01-29T04:05:32.460Z,98405.94
2019-01-29T04:08:00.240Z,98401.84
2019-01-29T04:10:27.990Z,98408.56
2019-01-29T04:12:55.769Z,98407.61
2019-01-29T04:15:23.669Z,98410.53
2019-01-29T04:17:55.481Z,98417.66
2019-01-29T04:20:24.879Z,98414.74
2019-01-29T04:22:52.628Z,98422.09
2019-01-29T04:25:20.390Z,98415.37
2019-01-29T04:27:48.233Z,98414.22
2019-01-29T04:30:17.235Z,98418.53
2019-01-29T04:32:44.972Z,98421.39
2019-01-29T04:35:12.791Z,98416.95
2019-01-29T04:37:40.551Z,98413.95
2019-01-29T04:40:09.309Z,98411.91
2019-01-29T04:42:37.513Z,98412.53
2019-01-29T04:45:06.479Z,98410.06
2019-01-29T04:47:34.249Z,98407.17
2019-01-29T04:50:02.302Z,98404.11
2019-01-29T04:52:30.484Z,98405.14
2019-01-29T04:54:58.370Z,98407.63
2019-01-29T04:57:26.143Z,98407.14
2019-01-29T04:59:53.901Z,98412.58
2019-01-29T05:02:21.669Z,98405.30
2019-01-29T05:04:49.456Z,98402.50
2019-01-29T05:07:17.232Z,98407.89
2019-01-29T05:09:44.985Z,98407.65
2019-01-29T05:12:12.799Z,98400.27
2019-01-29T05:14:40.563Z,98404.66
2019-01-29T05:17:08.334Z,98401.19
2019-01-29T05:19:36.120Z,98401.32
2019-01-29T05:22:04.045Z,98406.98
2019-01-29T05:24:31.879Z,98404.97
2019-01-29T05:26:59.657Z,98402.88
2019-01-29T05:29:27.417Z,98405.83
2019-01-29T05:31:55.507Z,98409.47
2019-01-29T05:34:23.275Z,98404.48
2019-01-29T05:36:51.041Z,98405.86
2019-01-29T05:39:18.824Z,98397.69
2019-01-29T05:41:46.606Z,98401.23
2019-01-29T05:44:14.657Z,98400.44
2019-01-29T05:46:42.501Z,98401.16
2019-01-29T05:49:10.274Z,98402.81
2019-01-29T05:51:38.058Z,98399.66
2019-01-29T05:54:05.892Z,98398.21
2019-01-29T05:56:35.933Z,98396.28
2019-01-29T05:59:03.794Z,98397.14
2019-01-29T06:01:31.571Z,98400.63
2019-01-29T06:03:59.352Z,98398.89
2019-01-29T06:06:27.236Z,98398.03
2019-01-29T06:08:55.074Z,98398.03
2019-01-29T06:11:22.837Z,98402.30
2019-01-29T06:13:51.089Z,98404.05
2019-01-29T06:16:18.879Z,98403.67
2019-01-29T06:18:47.359Z,98399.03
2019-01-29T06:21:15.447Z,98401.92
2019-01-29T06:23:43.376Z,98398.74
2019-01-29T06:26:11.156Z,98403.59
2019-01-29T06:28:38.925Z,98405.19
2019-01-29T06:31:06.692Z,98410.97
2019-01-29T06:33:34.464Z,98405.67
2019-01-29T06:36:02.691Z,98407.19
2019-01-29T06:38:30.452Z,98407.58
2019-01-29T06:40:58.222Z,98414.19
2019-01-29T06:43:25.985Z,98413.88
2019-01-29T06:45:53.761Z,98414.57
2019-01-29T06:48:21.532Z,98412.11
2019-01-29T06:50:49.296Z,98412.22
2019-01-29T06:53:17.074Z,98419.50
2019-01-29T06:55:44.908Z,98423.03
2019-01-29T06:58:12.994Z,98424.41
2019-01-29T07:00:40.764Z,98428.67
2019-01-29T07:03:08.514Z,98431.03
2019-01-29T07:05:36.311Z,98426.91
2019-01-29T07:08:04.137Z,98433.13
2019-01-29T07:10:32.017Z,98431.30
2019-01-29T07:12:59.778Z,98429.88
2019-01-29T07:15:52.964Z,98423.75
2019-01-29T07:18:42.815Z,98411.84
2019-01-29T07:21:11.136Z,98422.67
2019-01-29T07:23:38.890Z,98415.77
2019-01-29T07:26:06.664Z,98414.38
2019-01-29T07:28:34.422Z,98416.99
2019-01-29T07:31:02.173Z,98420.59
2019-01-29T07:33:29.933Z,98428.66
2019-01-29T07:35:57.701Z,98428.06
2019-01-29T07:38:25.469Z,98424.91
2019-01-29T07:40:53.511Z,98431.33
2019-01-29T07:43:21.269Z,98421.66
2019-01-29T07:45:49.036Z,98424.59
2019-01-29T07:48:16.978Z,98424.97
2019-01-29T07:50:44.738Z,98428.66
2019-01-29T07:53:12.513Z,98423.45
2019-01-29T07:55:40.260Z,98425.61
2019-01-29T07:58:08.031Z,98432.06
2019-01-29T08:00:35.805Z,98431.63
2019-01-29T08:03:03.645Z,98434.44
2019-01-29T08:05:31.408Z,98427.19
2019-01-29T08:07:59.169Z,98422.70
2019-01-29T08:10:26.932Z,98419.50
2019-01-29T08:12:56.572Z,98421.36
2019-01-29T08:15:24.569Z,98418.27
2019-01-29T08:17:52.329Z,98417.01
2019-01-29T08:20:20.110Z,98421.97
2019-01-29T08:22:47.928Z,98411.47
2019-01-29T08:25:15.951Z,98403.94
2019-01-29T08:27:44.009Z,98399.56
2019-01-29T08:30:11.793Z,98397.09
2019-01-29T08:32:39.620Z,98402.70
2019-01-29T08:35:07.619Z,98398.10
2019-01-29T08:37:35.381Z,98396.46
2019-01-29T08:40:03.263Z,98391.97
2019-01-29T08:42:31.101Z,98396.09
2019-01-29T08:44:58.855Z,98388.05
2019-01-29T08:47:26.610Z,98393.75
2019-01-29T08:49:54.683Z,98389.05
2019-01-29T08:52:22.853Z,98384.41
2019-01-29T08:54:50.625Z,98386.50
2019-01-29T08:57:18.452Z,98390.94
2019-01-29T08:59:46.211Z,98388.44
2019-01-29T09:02:14.157Z,98385.96
2019-01-29T09:04:41.907Z,98380.05
2019-01-29T09:07:09.727Z,98391.06
2019-01-29T09:09:37.967Z,98382.92
2019-01-29T09:12:05.805Z,98383.55
2019-01-29T09:14:33.557Z,98386.00
2019-01-29T09:17:01.335Z,98377.36
2019-01-29T09:19:29.172Z,98383.14
2019-01-29T09:21:56.935Z,98375.70
2019-01-29T09:24:24.710Z,98372.55
2019-01-29T09:26:52.465Z,98367.25
2019-01-29T09:29:20.208Z,98373.52
2019-01-29T09:31:47.977Z,98372.03
2019-01-29T09:34:16.062Z,98366.80
2019-01-29T09:36:43.879Z,98364.00
2019-01-29T09:39:11.732Z,98366.63
2019-01-29T09:41:39.486Z,98368.36
2019-01-29T09:44:07.240Z,98370.13
2019-01-29T09:46:35.008Z,98367.58
2019-01-29T09:49:02.860Z,98365.25
2019-01-29T09:51:30.712Z,98363.66
2019-01-29T09:53:58.484Z,98366.36
2019-01-29T09:56:27.887Z,98360.06
2019-01-29T09:58:55.628Z,98356.88
2019-01-29T10:01:23.396Z,98354.02
2019-01-29T10:03:51.156Z,98359.86
2019-01-29T10:06:18.906Z,98355.67
2019-01-29T10:08:46.661Z,98356.18
2019-01-29T10:11:14.409Z,98352.95
2019-01-29T10:13:42.238Z,98350.12
2019-01-29T10:16:10.006Z,98351.89
2019-01-29T10:18:37.756Z,98341.34
2019-01-29T10:21:05.829Z,98339.01
2019-01-29T10:23:33.598Z,98333.64
2019-01-29T10:26:01.360Z,98331.20
2019-01-29T10:28:29.113Z,98322.28
2019-01-29T10:30:56.868Z,98317.71
2019-01-29T10:33:24.625Z,98314.47
2019-01-29T10:35:52.383Z,98315.33
2019-01-29T10:38:20.136Z,98308.13
2019-01-29T10:40:47.972Z,98303.78
2019-01-29T10:43:15.727Z,98292.57
2019-01-29T10:45:43.555Z,98282.16
2019-01-29T10:48:11.324Z,98278.16
2019-01-29T10:50:39.088Z,98268.34
2019-01-29T10:53:06.846Z,98265.92
2019-01-29T10:55:34.936Z,98261.35
2019-01-29T10:58:02.705Z,98253.75
2019-01-29T11:00:31.884Z,98256.53
2019-01-29T11:02:59.699Z,98251.38
2019-01-29T11:05:27.544Z,98244.17
2019-01-29T11:07:55.361Z,98237.31
2019-01-29T11:10:23.205Z,98231.73
2019-01-29T11:12:50.990Z,98221.75
2019-01-29T11:15:21.068Z,98210.78
2019-01-29T11:17:48.905Z,98207.85
2019-01-29T11:20:16.761Z,98199.54
2019-01-29T11:22:45.789Z,98198.44
2019-01-29T11:25:15.555Z,98188.07
2019-01-29T11:27:43.500Z,98186.33
2019-01-29T11:30:11.935Z,98183.20
2019-01-29T11:32:39.693Z,98172.56
2019-01-29T11:35:07.947Z,98162.22
2019-01-29T11:37:35.726Z,98162.52
2019-01-29T11:40:03.563Z,98158.20
2019-01-29T11:42:31.317Z,98154.31
2019-01-29T11:44:59.076Z,98142.56
2019-01-29T11:47:26.880Z,98139.08
2019-01-29T11:49:54.636Z,98130.53
2019-01-29T11:52:22.418Z,98132.61
2019-01-29T11:54:50.429Z,98126.55
2019-01-29T11:57:18.392Z,98122.74
2019-01-29T11:59:46.472Z,98125.38
2019-01-29T12:02:14.304Z,98116.97
2019-01-29T12:04:42.068Z,98111.25
2019-01-29T12:07:09.828Z,98106.66
2019-01-29T12:09:37.664Z,98100.85
2019-01-29T12:12:05.417Z,98097.83
2019-01-29T12:14:33.182Z,98095.14
2019-01-29T12:17:01.023Z,98093.73
2019-01-29T12:19:28.780Z,98094.65
2019-01-29T12:21:56.548Z,98098.70
2019-01-29T12:24:24.300Z,98096.26
2019-01-29T12:26:52.067Z,98092.48
2019-01-29T12:29:19.820Z,98095.66
2019-01-29T12:31:47.581Z,98094.94
2019-01-29T12:34:15.396Z,98094.31
2019-01-29T12:36:43.166Z,98093.56
2019-01-29T12:39:11.006Z,98083.94
2019-01-29T12:41:38.768Z,98076.53
2019-01-29T12:44:06.588Z,98075.61
2019-01-29T12:46:34.347Z,98065.13
2019-01-29T12:49:02.184Z,98062.77
2019-01-29T12:51:47.005Z,98055.55
2019-01-29T12:54:14.849Z,98052.47
2019-01-29T12:56:42.642Z,98042.42
2019-01-29T12:59:10.404Z,98038.17
2019-01-29T13:01:38.242Z,98028.96
2019-01-29T13:04:06.000Z,98022.95
2019-01-29T13:06:33.760Z,98020.48
2019-01-29T13:09:01.597Z,98017.34
2019-01-29T13:11:29.709Z,98011.55
2019-01-29T13:13:57.740Z,98014.02
2019-01-29T13:16:25.521Z,98005.28
2019-01-29T13:18:53.271Z,98002.45
2019-01-29T13:21:21.491Z,97997.47
2019-01-29T13:23:49.243Z,97997.27
2019-01-29T13:26:17.182Z,97995.70
2019-01-29T13:28:45.254Z,97995.30
2019-01-29T13:31:13.424Z,97995.08
2019-01-29T13:33:41.188Z,97996.88
2019-01-29T13:36:09.126Z,97989.30
2019-01-29T13:38:36.897Z,97979.20
2019-01-29T13:41:04.743Z,97975.36
2019-01-29T13:43:32.504Z,97966.80
2019-01-29T13:46:00.354Z,97963.97
2019-01-29T13:48:28.171Z,97955.19
2019-01-29T13:50:56.674Z,97948.67
2019-01-29T13:53:24.426Z,97939.69
2019-01-29T13:55:52.178Z,97938.55
2019-01-29T13:58:20.025Z,97938.41
2019-01-29T14:00:47.867Z,97930.46
2019-01-29T14:03:16.101Z,97930.77
2019-01-29T14:05:43.871Z,97918.34
2019-01-29T14:08:11.616Z,97912.48
2019-01-29T14:10:39.396Z,97910.60
2019-01-29T14:13:07.266Z,97904.83
2019-01-29T14:15:39.224Z,97905.44
2019-01-29T14:18:06.987Z,97903.63
2019-01-29T14:20:34.831Z,97896.30
2019-01-29T14:23:02.698Z,97886.78
2019-01-29T14:25:30.467Z,97888.11
2019-01-29T14:27:58.304Z,97886.02
2019-01-29T14:30:26.101Z,97877.68
2019-01-29T14:32:54.036Z,97876.81
2019-01-29T14:35:22.155Z,97868.82
2019-01-29T14:38:18.609Z,97863.47
2019-01-29T14:40:46.395Z,97861.98
2019-01-29T14:43:14.748Z,97855.69
2019-01-29T14:45:42.500Z,97849.28
2019-01-29T14:48:10.327Z,97846.66
2019-01-29T14:50:38.108Z,97846.38
2019-01-29T14:53:05.949Z,97838.68
2019-01-29T14:55:33.697Z,97835.42
2019-01-29T14:58:01.486Z,97832.70
2019-01-29T15:00:29.300Z,97827.88
2019-01-29T15:02:57.130Z,97824.75
2019-01-29T15:05:24.983Z,97825.15
2019-01-29T15:07:52.911Z,97828.64
2019-01-29T15:10:20.820Z,97825.14
2019-01-29T15:12:50.581Z,97817.61
2019-01-29T15:15:18.597Z,97807.02
2019-01-29T15:17:50.230Z,97805.60
2019-01-29T15:20:18.083Z,97801.95
2019-01-29T15:22:45.921Z,97789.56
2019-01-29T15:25:13.701Z,97785.63
2019-01-29T15:27:41.497Z,97777.03
2019-01-29T15:30:13.052Z,97776.86
2019-01-29T15:32:40.868Z,97773.86
2019-01-29T15:35:09.057Z,97770.21
2019-01-29T15:37:36.830Z,97765.47
2019-01-29T15:40:05.685Z,97766.40
2019-01-29T15:42:33.559Z,97770.02
2019-01-29T15:45:01.405Z,97752.91
2019-01-29T15:47:29.467Z,97756.98
2019-01-29T15:49:57.272Z,97746.59
2019-01-29T15:52:25.028Z,97742.52
2019-01-29T15:54:53.120Z,97739.72
2019-01-29T15:57:20.951Z,97734.83
2019-01-29T15:59:48.721Z,97727.63
2019-01-29T16:02:16.781Z,97723.69
2019-01-29T16:04:44.556Z,97723.38
2019-01-29T16:07:12.317Z,97717.27
2019-01-29T16:09:40.085Z,97712.42
2019-01-29T16:12:07.833Z,97723.27
2019-01-29T16:14:36.148Z,97710.42
2019-01-29T16:17:03.989Z,97711.77
2019-01-29T16:19:31.742Z,97705.45
2019-01-29T16:21:59.552Z,97700.20
2019-01-29T16:24:27.313Z,97688.53
2019-01-29T16:26:55.084Z,97688.05
2019-01-29T16:29:24.545Z,97681.91
2019-01-29T16:31:52.300Z,97669.67
2019-01-29T16:34:20.044Z,97671.28
2019-01-29T16:36:48.582Z,97667.13
2019-01-29T16:39:16.333Z,97669.13
2019-01-29T16:41:44.084Z,97666.11
2019-01-29T16:44:11.835Z,97654.91
2019-01-29T16:46:39.596Z,97643.70
2019-01-29T16:49:07.367Z,97644.91
2019-01-29T16:51:41.991Z,97642.33
2019-01-29T16:54:04.767Z,97642.83
2019-01-29T16:56:32.695Z,97643.59
2019-01-29T16:59:01.377Z,97649.27
2019-01-29T17:01:29.315Z,97642.74
2019-01-29T17:03:57.427Z,97647.52
2019-01-29T17:06:25.177Z,97636.39
2019-01-29T17:08:52.965Z,97630.83
2019-01-29T17:11:20.848Z,97629.08
2019-01-29T17:13:49.061Z,97618.42
2019-01-29T17:16:16.920Z,97615.91
2019-01-29T17:18:44.717Z,97608.59
2019-01-29T17:21:12.601Z,97609.69
2019-01-29T17:23:41.017Z,97602.94
2019-01-29T17:26:08.776Z,97605.02
2019-01-29T17:28:36.537Z,97591.16
2019-01-29T17:31:04.328Z,97590.44
2019-01-29T17:33:32.257Z,97595.66
2019-01-29T17:36:00.111Z,97589.12
2019-01-29T17:38:27.916Z,97581.57
2019-01-29T17:40:55.706Z,97583.33
2019-01-29T17:43:23.478Z,97580.19
2019-01-29T17:45:51.268Z,97571.15
2019-01-29T17:48:19.118Z,97566.56
2019-01-29T17:50:46.949Z,97566.80
2019-01-29T17:53:15.723Z,97563.28
2019-01-29T17:55:43.761Z,97556.45
2019-01-29T17:58:12.229Z,97546.86
2019-01-29T18:00:41.762Z,97552.53
2019-01-29T18:03:09.909Z,97540.84
2019-01-29T18:05:37.915Z,97535.41
2019-01-29T18:08:05.762Z,97532.34
2019-01-29T18:10:33.908Z,97535.89
2019-01-29T18:13:01.680Z,97531.66
2019-01-29T18:15:29.509Z,97521.47
2019-01-29T18:17:57.866Z,97518.67
2019-01-29T18:20:26.194Z,97510.63
2019-01-29T18:22:53.965Z,97506.94
2019-01-29T18:25:21.894Z,97506.32
2019-01-29T18:27:49.651Z,97502.55
2019-01-29T18:30:18.816Z,97502.14
2019-01-29T18:32:46.657Z,97499.13
2019-01-29T18:35:14.479Z,97490.27
2019-01-29T18:37:42.288Z,97484.66
2019-01-29T18:40:11.392Z,97484.16
2019-01-29T18:42:39.269Z,97477.95
2019-01-29T18:45:07.129Z,97475.85
2019-01-29T18:47:34.976Z,97465.75
2019-01-29T18:50:02.913Z,97459.23
2019-01-29T18:52:30.677Z,97460.84
2019-01-29T18:54:59.934Z,97452.89
2019-01-29T18:57:28.625Z,97452.67
2019-01-29T18:59:57.972Z,97449.70
2019-01-29T19:02:26.013Z,97447.00
2019-01-29T19:04:53.755Z,97440.30
2019-01-29T19:07:21.553Z,97440.58
2019-01-29T19:09:49.474Z,97432.13
2019-01-29T19:12:17.243Z,97430.51
2019-01-29T19:14:45.101Z,97431.27
2019-01-29T19:17:12.854Z,97430.06
2019-01-29T19:19:40.921Z,97423.03
2019-01-29T19:22:08.687Z,97419.84
2019-01-29T19:24:36.461Z,97411.59
2019-01-29T19:27:04.337Z,97409.62
2019-01-29T19:29:32.097Z,97403.64
2019-01-29T19:31:59.987Z,97400.58
2019-01-29T19:34:27.834Z,97392.41
2019-01-29T19:36:55.584Z,97393.25
2019-01-29T19:39:23.343Z,97398.91
2019-01-29T19:41:51.512Z,97392.27
2019-01-29T19:44:19.584Z,97389.59
2019-01-29T19:46:47.365Z,97381.68
2019-01-29T19:49:15.213Z,97379.34
2019-01-29T19:51:42.988Z,97375.25
2019-01-29T19:54:10.747Z,97365.52
2019-01-29T19:56:38.527Z,97365.11
2019-01-29T19:59:07.525Z,97353.88
2019-01-29T20:01:35.411Z,97355.03
2019-01-29T20:04:03.264Z,97359.12
2019-01-29T20:06:31.422Z,97351.73
2019-01-29T20:08:59.208Z,97348.91
2019-01-29T20:11:26.968Z,97340.41
2019-01-29T20:13:54.725Z,97337.72
2019-01-29T20:16:22.569Z,97333.02
2019-01-29T20:18:50.334Z,97330.48
2019-01-29T20:21:18.212Z,97332.75
2019-01-29T20:23:45.975Z,97325.27
2019-01-29T20:26:13.734Z,97319.70
2019-01-29T20:28:42.771Z,97314.62
2019-01-29T20:31:10.741Z,97308.69
2019-01-29T20:33:38.679Z,97310.36
2019-01-29T20:36:06.522Z,97304.96
2019-01-29T20:38:35.443Z,97299.30
2019-01-29T20:41:03.336Z,97299.87
2019-01-29T20:43:31.143Z,97299.87
2019-01-29T20:45:59.129Z,97294.22
2019-01-29T20:48:26.896Z,97289.86
2019-01-29T20:50:54.728Z,97283.64
2019-01-29T20:53:23.750Z,97281.03
2019-01-29T20:55:51.629Z,97278.22
2019-01-29T20:58:19.464Z,97274.88
2019-01-29T21:00:47.224Z,97278.13
2019-01-29T21:03:14.986Z,97270.97
2019-01-29T21:05:42.749Z,97264.77
2019-01-29T21:08:10.582Z,97257.90
2019-01-29T21:10:39.125Z,97248.41
2019-01-29T21:13:06.961Z,97249.07
2019-01-29T21:15:38.445Z,97247.38
2019-01-29T21:18:04.297Z,97237.44
2019-01-29T21:20:32.076Z,97236.59
2019-01-29T21:22:59.928Z,97226.95
2019-01-29T21:25:28.094Z,97221.70
2019-01-29T21:27:55.919Z,97224.05
2019-01-29T21:30:35.491Z,97213.67
2019-01-29T21:33:03.331Z,97207.35
2019-01-29T21:35:33.811Z,97207.74
2019-01-29T21:38:01.616Z,97205.78
2019-01-29T21:40:29.428Z,97202.78
2019-01-29T21:42:57.308Z,97191.24
2019-01-29T21:45:25.073Z,97189.68
2019-01-29T21:47:53.278Z,97180.16
2019-01-29T21:50:22.159Z,97181.83
2019-01-29T21:52:51.148Z,97171.13
2019-01-29T21:55:19.913Z,97174.94
2019-01-29T21:57:50.188Z,97162.66
2019-01-29T22:00:20.515Z,97162.16
2019-01-29T22:02:49.859Z,97158.28
2019-01-29T22:05:20.264Z,97157.23
2019-01-29T22:07:48.016Z,97147.66
2019-01-29T22:10:15.947Z,97147.81
2019-01-29T22:12:43.861Z,97142.14
2019-01-29T22:15:12.298Z,97136.57
2019-01-29T22:17:40.059Z,97134.03
2019-01-29T22:20:08.973Z,97126.50
2019-01-29T22:22:36.724Z,97117.08
2019-01-29T22:25:05.104Z,97103.69
2019-01-29T22:27:32.857Z,97101.44
2019-01-29T22:30:00.631Z,97088.69
2019-01-29T22:32:28.387Z,97093.16
2019-01-29T22:34:56.136Z,97083.08
2019-01-29T22:37:23.922Z,97075.06
2019-01-29T22:39:51.692Z,97064.08
2019-01-29T22:42:19.537Z,97066.32
2019-01-29T22:44:47.305Z,97062.31
2019-01-29T22:47:15.065Z,97056.63
2019-01-29T22:49:43.956Z,97051.98
2019-01-29T22:52:11.720Z,97047.16
2019-01-29T22:54:39.578Z,97047.42
2019-01-29T22:57:07.659Z,97046.02
2019-01-29T22:59:35.509Z,97040.05
2019-01-29T23:02:03.692Z,97035.69
2019-01-29T23:04:33.073Z,97032.53
2019-01-29T23:07:14.806Z,97032.33
2019-01-29T23:09:42.571Z,97031.88
2019-01-29T23:12:10.415Z,97025.35
2019-01-29T23:14:38.284Z,97019.94
2019-01-29T23:17:06.364Z,97016.50
2019-01-29T23:19:34.141Z,97007.19
2019-01-29T23:22:01.973Z,97004.84
2019-01-29T23:24:29.723Z,96995.06
2019-01-29T23:26:57.515Z,97000.56
2019-01-29T23:29:25.358Z,96995.45
2019-01-29T23:31:53.124Z,96988.20
2019-01-29T23:34:20.892Z,96988.56
2019-01-29T23:36:48.644Z,96978.80
2019-01-29T23:39:16.435Z,96981.21
2019-01-29T23:41:44.283Z,96967.98
2019-01-29T23:44:12.508Z,96961.47
2019-01-29T23:46:40.336Z,96966.66
2019-01-29T23:49:08.421Z,96959.23
2019-01-29T23:51:36.199Z,96959.22
2019-01-29T23:54:04.237Z,96958.30
2019-01-29T23:56:32.005Z,96949.63
2019-01-29T23:58:59.780Z,96953.91
